Time;durP1;ratioP1;P1;durP2;ratioP2;P2;SDS_P1;SDS_P2;PMS_P1;PMS_P2;Temp;Humidity;BMP_temperature;BMP_pressure;BME280_temperature;BME280_humidity;BME280_pressure;Samples;Min_cycle;Max_cycle;Signal;HPM_P1;HPM_P2
2023/11/23 00:00:38;;;;;;;23.00;8.73;;;8.70;99.90;;;;;;5017018;28;20428;-76
2023/11/23 00:03:05;;;;;;;19.75;8.55;;;8.70;99.90;;;;;;5017051;28;20046;-76
2023/11/23 00:05:31;;;;;;;19.58;7.65;;;8.80;99.90;;;;;;5015876;28;20036;-75
2023/11/23 00:07:57;;;;;;;25.58;9.60;;;8.80;99.90;;;;;;5017290;28;20105;-75
2023/11/23 00:10:27;;;;;;;23.70;8.82;;;8.80;99.90;;;;;;5016719;28;20105;-75
2023/11/23 00:12:52;;;;;;;22.13;8.07;;;8.90;99.90;;;;;;5016814;28;20113;-75
2023/11/23 00:15:18;;;;;;;19.08;7.65;;;8.90;99.90;;;;;;5016551;28;20037;-75
2023/11/23 00:17:43;;;;;;;19.13;8.15;;;10.40;99.90;;;;;;5015451;28;20022;-75
2023/11/23 00:20:10;;;;;;;18.40;7.50;;;10.80;99.90;;;;;;5016717;28;20080;-75
2023/11/23 00:22:36;;;;;;;17.98;7.22;;;8.90;99.90;;;;;;5016323;28;20378;-75
2023/11/23 00:25:04;;;;;;;20.25;6.88;;;8.90;99.90;;;;;;5015258;28;20026;-75
2023/11/23 00:27:31;;;;;;;17.48;7.97;;;8.90;99.90;;;;;;5016470;28;20489;-75
2023/11/23 00:29:57;;;;;;;22.45;7.00;;;8.90;99.90;;;;;;5016568;28;20105;-75
2023/11/23 00:32:23;;;;;;;20.20;7.70;;;11.20;99.90;;;;;;5016466;28;20068;-75
2023/11/23 00:34:50;;;;;;;21.08;7.45;;;9.00;99.90;;;;;;5016497;28;20080;-75
2023/11/23 00:37:15;;;;;;;16.45;6.47;;;9.00;99.90;;;;;;5014900;28;20046;-75
2023/11/23 00:39:41;;;;;;;18.40;6.88;;;9.00;99.90;;;;;;5015915;28;20068;-75
2023/11/23 00:42:10;;;;;;;13.52;6.82;;;10.20;99.90;;;;;;5016853;28;20044;-75
2023/11/23 00:44:37;;;;;;;14.38;6.72;;;9.00;99.90;;;;;;5016401;28;20060;-75
2023/11/23 00:47:02;;;;;;;16.65;6.65;;;9.00;99.90;;;;;;5014837;28;20034;-75
2023/11/23 00:49:28;;;;;;;13.90;5.82;;;9.00;99.90;;;;;;5016569;28;20117;-75
2023/11/23 00:51:57;;;;;;;17.73;6.22;;;9.00;99.90;;;;;;5016244;28;20482;-75
2023/11/23 00:54:22;;;;;;;15.88;7.05;;;9.00;99.90;;;;;;5015626;28;20117;-75
2023/11/23 00:56:48;;;;;;;19.08;6.97;;;9.10;99.90;;;;;;5016070;28;20050;-75
2023/11/23 00:59:13;;;;;;;18.95;5.55;;;9.10;99.90;;;;;;5014795;28;20045;-75
2023/11/23 01:01:39;;;;;;;18.67;6.50;;;9.10;99.90;;;;;;5015867;28;20112;-75
2023/11/23 01:04:05;;;;;;;18.67;6.80;;;9.10;99.90;;;;;;5014563;28;20033;-75
2023/11/23 01:06:31;;;;;;;17.23;6.28;;;9.10;99.90;;;;;;5016052;28;20026;-75
2023/11/23 01:08:56;;;;;;;16.38;5.97;;;9.10;99.90;;;;;;5015706;28;20017;-75
2023/11/23 01:11:23;;;;;;;11.48;5.70;;;9.10;99.90;;;;;;5015232;28;20062;-75
2023/11/23 01:13:49;;;;;;;14.35;5.55;;;9.10;99.90;;;;;;5015276;28;20033;-75
2023/11/23 01:16:15;;;;;;;14.85;6.35;;;9.10;99.90;;;;;;5014945;28;20398;-75
2023/11/23 01:18:42;;;;;;;14.93;6.10;;;9.10;99.90;;;;;;5015703;28;20018;-75
2023/11/23 01:21:07;;;;;;;16.08;5.82;;;9.20;99.90;;;;;;5014275;28;20025;-75
2023/11/23 01:23:36;;;;;;;14.77;5.50;;;10.80;99.90;;;;;;5014667;28;20026;-75
2023/11/23 01:26:01;;;;;;;8.98;4.18;;;9.20;99.90;;;;;;5016047;28;20108;-75
2023/11/23 01:28:27;;;;;;;14.05;5.68;;;9.30;99.90;;;;;;5015274;28;20508;-75
2023/11/23 01:30:52;;;;;;;13.77;6.22;;;9.30;99.90;;;;;;5015537;28;20385;-75
2023/11/23 01:33:18;;;;;;;15.77;6.47;;;9.30;99.90;;;;;;5015231;28;20481;-75
2023/11/23 01:35:44;;;;;;;16.35;5.32;;;9.30;99.90;;;;;;5014271;28;20029;-75
2023/11/23 01:38:10;;;;;;;11.13;5.45;;;9.30;99.90;;;;;;5015503;28;20576;-75
2023/11/23 01:40:35;;;;;;;18.63;6.68;;;9.30;99.90;;;;;;5015135;28;20049;-75
2023/11/23 01:43:05;;;;;;;12.85;5.40;;;9.30;99.90;;;;;;5015335;28;20018;-75
2023/11/23 01:45:30;;;;;;;21.58;7.00;;;9.20;99.90;;;;;;5013987;28;20049;-75
2023/11/23 01:47:56;;;;;;;18.00;6.13;;;10.60;99.90;;;;;;5013692;28;20049;-76
2023/11/23 01:50:22;;;;;;;14.48;6.00;;;9.20;99.90;;;;;;5015632;28;20030;-75
2023/11/23 01:52:48;;;;;;;17.88;5.97;;;9.20;99.90;;;;;;5015439;28;20026;-75
2023/11/23 01:55:14;;;;;;;17.65;5.38;;;9.20;99.90;;;;;;5014833;28;20014;-75
2023/11/23 01:57:41;;;;;;;22.92;5.65;;;9.20;99.90;;;;;;5014503;28;20482;-75
2023/11/23 02:00:08;;;;;;;17.25;5.30;;;9.10;99.90;;;;;;5014847;28;20009;-75
2023/11/23 02:02:33;;;;;;;17.25;5.15;;;9.20;99.90;;;;;;5014207;28;20022;-75
2023/11/23 02:05:03;;;;;;;16.27;4.75;;;9.20;99.90;;;;;;5013857;28;20121;-75
2023/11/23 02:07:28;;;;;;;17.77;4.22;;;9.70;99.90;;;;;;5015588;28;20136;-75
2023/11/23 02:09:54;;;;;;;13.80;4.75;;;10.80;99.90;;;;;;5013791;28;20058;-75
2023/11/23 02:12:21;;;;;;;14.68;3.80;;;9.10;99.90;;;;;;5014992;28;20029;-76
2023/11/23 02:14:50;;;;;;;12.45;3.63;;;9.20;99.90;;;;;;5013372;28;20022;-75
2023/11/23 02:17:17;;;;;;;10.52;3.65;;;9.20;99.90;;;;;;5015349;28;20014;-75
2023/11/23 02:19:49;;;;;;;8.13;2.78;;;9.20;99.90;;;;;;5013502;28;20014;-75
2023/11/23 02:22:15;;;;;;;9.57;3.47;;;9.10;99.90;;;;;;5015175;28;20028;-75
2023/11/23 02:24:45;;;;;;;10.25;3.38;;;9.10;99.90;;;;;;5015125;28;20503;-75
2023/11/23 02:27:11;;;;;;;10.38;3.10;;;9.10;99.90;;;;;;5014621;28;20105;-75
2023/11/23 02:29:38;;;;;;;9.60;2.97;;;9.10;99.90;;;;;;5012906;28;20549;-75
2023/11/23 02:32:07;;;;;;;12.80;3.40;;;9.10;99.90;;;;;;5013683;28;20076;-75
2023/11/23 02:34:37;;;;;;;4.97;2.85;;;9.10;99.90;;;;;;5013281;28;20026;-75
2023/11/23 02:37:04;;;;;;;10.63;2.35;;;9.10;99.90;;;;;;5014658;28;20381;-75
2023/11/23 02:39:30;;;;;;;8.32;2.78;;;9.20;99.90;;;;;;5014362;28;20521;-75
2023/11/23 02:41:56;;;;;;;8.35;3.25;;;9.20;99.90;;;;;;5014397;28;20026;-75
2023/11/23 02:44:23;;;;;;;9.07;2.97;;;9.30;99.90;;;;;;5014399;28;20038;-75
2023/11/23 02:46:51;;;;;;;14.05;2.95;;;9.30;99.90;;;;;;5013994;28;20022;-75
2023/11/23 02:49:20;;;;;;;10.98;3.47;;;9.40;99.90;;;;;;5013153;28;20037;-75
2023/11/23 02:51:46;;;;;;;8.13;2.30;;;9.50;99.90;;;;;;5014639;28;20487;-75
2023/11/23 02:54:12;;;;;;;7.93;2.35;;;10.20;99.90;;;;;;5018353;28;20057;-75
2023/11/23 02:56:38;;;;;;;10.13;2.63;;;9.50;99.90;;;;;;5018134;28;20101;-75
2023/11/23 02:59:04;;;;;;;8.07;2.33;;;9.50;99.90;;;;;;5018788;28;20485;-75
2023/11/23 03:01:32;;;;;;;9.18;2.17;;;9.50;99.90;;;;;;5016848;28;20018;-75
2023/11/23 03:03:58;;;;;;;12.60;2.17;;;9.50;99.90;;;;;;5017059;28;20032;-75
2023/11/23 03:06:23;;;;;;;7.35;1.45;;;9.50;99.90;;;;;;5017484;28;20030;-75
2023/11/23 03:08:51;;;;;;;10.70;2.33;;;9.70;99.90;;;;;;5017658;28;20489;-75
2023/11/23 03:11:24;;;;;;;8.32;1.83;;;10.00;99.90;;;;;;5017860;28;20026;-75
2023/11/23 03:13:51;;;;;;;9.77;2.40;;;9.30;99.90;;;;;;5016896;28;20033;-75
2023/11/23 03:16:16;;;;;;;11.20;1.85;;;9.30;99.90;;;;;;5016702;28;20072;-75
2023/11/23 03:18:45;;;;;;;8.82;1.80;;;9.30;99.90;;;;;;5017992;28;20018;-75
2023/11/23 03:21:11;;;;;;;11.13;1.65;;;9.10;99.90;;;;;;5017889;28;20017;-75
2023/11/23 03:23:37;;;;;;;7.85;1.23;;;9.20;99.90;;;;;;5017660;28;20500;-75
2023/11/23 03:26:03;;;;;;;5.35;1.48;;;9.20;99.90;;;;;;5017640;28;20173;-75
2023/11/23 03:28:29;;;;;;;8.55;1.80;;;9.20;99.90;;;;;;5017404;28;20022;-75
2023/11/23 03:30:55;;;;;;;9.60;1.10;;;9.30;99.90;;;;;;5015943;28;20064;-75
2023/11/23 03:33:20;;;;;;;7.72;1.20;;;9.30;99.90;;;;;;5016559;28;20119;-75
2023/11/23 03:35:46;;;;;;;9.38;2.22;;;9.30;99.90;;;;;;5017862;28;20025;-75
2023/11/23 03:38:12;;;;;;;7.05;1.55;;;9.30;99.90;;;;;;5016146;28;20053;-75
2023/11/23 03:40:38;;;;;;;6.32;1.10;;;9.30;99.90;;;;;;5017654;28;20030;-76
2023/11/23 03:43:04;;;;;;;11.68;0.82;;;9.30;99.90;;;;;;5017017;28;20049;-75
2023/11/23 03:45:29;;;;;;;9.52;1.67;;;9.30;99.90;;;;;;5017322;28;20036;-75
2023/11/23 03:47:56;;;;;;;5.65;0.88;;;9.20;99.90;;;;;;5016454;28;20404;-75
2023/11/23 03:50:21;;;;;;;14.18;1.38;;;9.30;99.90;;;;;;5016214;28;20022;-75
2023/11/23 03:52:47;;;;;;;9.68;1.48;;;9.30;99.90;;;;;;5016804;28;20018;-75
2023/11/23 03:55:13;;;;;;;9.40;0.65;;;9.30;99.90;;;;;;5017444;28;20076;-75
2023/11/23 03:57:38;;;;;;;5.75;0.52;;;9.20;99.90;;;;;;5017229;28;20520;-75
2023/11/23 04:00:06;;;;;;;11.48;0.90;;;11.90;99.90;;;;;;5016843;28;20061;-76
2023/11/23 04:02:32;;;;;;;7.68;1.50;;;9.20;99.90;;;;;;5017309;28;20055;-75
2023/11/23 04:04:58;;;;;;;8.25;1.88;;;9.30;99.90;;;;;;5016341;28;20030;-75
2023/11/23 04:07:24;;;;;;;5.20;0.65;;;9.40;99.90;;;;;;5015772;28;20037;-75
2023/11/23 04:09:49;;;;;;;4.88;1.10;;;9.40;99.90;;;;;;5015562;28;20050;-75
2023/11/23 04:12:15;;;;;;;9.40;1.67;;;9.30;99.90;;;;;;5017085;28;20033;-75
2023/11/23 04:14:41;;;;;;;9.05;1.63;;;9.30;99.90;;;;;;5016717;28;20030;-75
2023/11/23 04:17:06;;;;;;;7.68;0.65;;;10.40;99.90;;;;;;5016446;28;20026;-75
2023/11/23 04:19:32;;;;;;;3.85;0.60;;;9.20;99.90;;;;;;5015085;28;20485;-75
2023/11/23 04:21:59;;;;;;;5.28;1.58;;;9.20;99.90;;;;;;5016628;28;20355;-75
2023/11/23 04:24:28;;;;;;;7.13;0.60;;;9.20;99.90;;;;;;5015865;28;20148;-75
2023/11/23 04:26:53;;;;;;;7.00;0.77;;;9.20;99.90;;;;;;5016755;28;20509;-75
2023/11/23 04:29:19;;;;;;;9.82;0.50;;;9.20;99.90;;;;;;5015316;28;20034;-75
2023/11/23 04:31:48;;;;;;;5.35;0.30;;;9.20;99.90;;;;;;5016531;28;20041;-75
2023/11/23 04:34:13;;;;;;;5.22;0.70;;;9.20;99.90;;;;;;5015053;28;20030;-75
2023/11/23 04:36:39;;;;;;;6.53;0.52;;;9.20;99.90;;;;;;5016372;28;20033;-75
2023/11/23 04:39:05;;;;;;;8.05;1.13;;;10.40;99.90;;;;;;5016411;28;20032;-75
2023/11/23 04:41:31;;;;;;;3.90;0.40;;;9.30;99.90;;;;;;5017067;28;20024;-75
2023/11/23 04:43:56;;;;;;;8.52;1.45;;;9.30;99.90;;;;;;5016803;28;20030;-75
2023/11/23 04:46:22;;;;;;;5.28;0.50;;;10.20;99.90;;;;;;5016216;28;20022;-76
2023/11/23 04:48:48;;;;;;;8.63;0.80;;;9.20;99.90;;;;;;5015226;28;20022;-76
2023/11/23 04:51:17;;;;;;;9.50;0.38;;;9.10;99.90;;;;;;5016860;28;20026;-75
2023/11/23 04:53:42;;;;;;;;;;;9.10;99.90;;;;;;5016795;28;20037;-76
2023/11/23 04:56:08;;;;;;;10.52;0.77;;;9.10;99.90;;;;;;5015748;28;19905;-75
2023/11/23 04:58:34;;;;;;;7.78;0.80;;;9.00;99.90;;;;;;5014834;28;20018;-75
2023/11/23 05:01:00;;;;;;;5.78;0.60;;;9.00;99.90;;;;;;5014748;28;20033;-75
2023/11/23 05:03:28;;;;;;;2.83;0.40;;;9.10;99.90;;;;;;5016197;28;20030;-75
2023/11/23 05:05:54;;;;;;;2.35;0.90;;;9.10;99.90;;;;;;5016194;28;20170;-75
2023/11/23 05:08:20;;;;;;;3.10;1.13;;;9.10;99.90;;;;;;5016248;28;20029;-75
2023/11/23 05:10:46;;;;;;;8.50;0.80;;;9.00;99.90;;;;;;5015888;28;20496;-75
2023/11/23 05:13:12;;;;;;;8.10;1.40;;;9.10;99.90;;;;;;5015756;28;20037;-75
2023/11/23 05:15:38;;;;;;;6.85;1.25;;;9.10;99.90;;;;;;5013510;28;20105;-75
2023/11/23 05:18:04;;;;;;;5.07;1.13;;;9.10;99.90;;;;;;5014898;28;20477;-75
2023/11/23 05:20:29;;;;;;;3.72;0.85;;;9.10;99.90;;;;;;5016250;28;20069;-75
2023/11/23 05:22:55;;;;;;;8.52;0.90;;;9.30;99.90;;;;;;5014659;28;20437;-75
2023/11/23 05:25:20;;;;;;;8.73;0.80;;;9.10;99.90;;;;;;5014494;28;20057;-75
2023/11/23 05:27:46;;;;;;;3.85;0.68;;;9.10;99.90;;;;;;5014264;28;20056;-75
2023/11/23 05:30:12;;;;;;;5.25;0.60;;;9.10;99.90;;;;;;5014659;28;20100;-75
2023/11/23 05:32:40;;;;;;;5.07;1.13;;;9.00;99.90;;;;;;5016109;28;20440;-75
2023/11/23 05:35:07;;;;;;;5.18;1.15;;;9.00;99.90;;;;;;5015539;28;20025;-75
2023/11/23 05:37:33;;;;;;;6.63;0.70;;;9.00;99.90;;;;;;5014108;28;20014;-75
2023/11/23 05:39:58;;;;;;;7.65;0.60;;;9.10;99.90;;;;;;5015252;28;20040;-75
2023/11/23 05:42:26;;;;;;;8.98;1.73;;;9.10;99.90;;;;;;5015268;28;20025;-75
2023/11/23 05:44:51;;;;;;;8.75;0.73;;;9.10;99.90;;;;;;5015345;28;20026;-75
2023/11/23 05:47:17;;;;;;;5.53;0.70;;;9.10;99.90;;;;;;5013931;28;20397;-75
2023/11/23 05:49:43;;;;;;;15.88;2.33;;;9.20;99.90;;;;;;5014910;28;20032;-75
2023/11/23 05:52:09;;;;;;;9.23;0.63;;;9.20;99.90;;;;;;5015674;28;20029;-75
2023/11/23 05:54:35;;;;;;;14.63;1.27;;;10.60;99.90;;;;;;5014274;28;20026;-75
2023/11/23 05:57:00;;;;;;;11.75;0.93;;;9.10;99.90;;;;;;5015692;28;20409;-75
2023/11/23 05:59:26;;;;;;;5.55;0.57;;;9.10;99.90;;;;;;5015368;28;20084;-75
2023/11/23 06:01:51;;;;;;;9.48;1.95;;;9.20;99.90;;;;;;5014883;28;20072;-75
2023/11/23 06:04:17;;;;;;;9.88;0.63;;;9.20;99.90;;;;;;5013833;28;20033;-75
2023/11/23 06:06:42;;;;;;;7.20;0.35;;;9.10;99.90;;;;;;5014471;28;20034;-75
2023/11/23 06:09:11;;;;;;;4.47;0.90;;;9.10;99.90;;;;;;5014845;28;20038;-75
2023/11/23 06:11:36;;;;;;;1.48;0.68;;;9.10;99.90;;;;;;5014859;28;20032;-74
2023/11/23 06:14:02;;;;;;;9.45;0.45;;;9.10;99.90;;;;;;5014677;28;20440;-74
2023/11/23 06:16:28;;;;;;;6.57;1.25;;;9.20;99.90;;;;;;5014603;28;20049;-74
2023/11/23 06:18:54;;;;;;;2.55;0.43;;;9.20;99.90;;;;;;5014616;28;20018;-74
2023/11/23 06:21:19;;;;;;;4.80;0.50;;;9.20;99.90;;;;;;5014584;28;20096;-74
2023/11/23 06:23:47;;;;;;;3.70;0.40;;;9.20;99.90;;;;;;5014523;28;20026;-74
2023/11/23 06:26:12;;;;;;;5.85;0.95;;;9.20;99.90;;;;;;5015559;28;20026;-74
2023/11/23 06:28:38;;;;;;;8.40;1.23;;;9.20;99.90;;;;;;5012844;28;20026;-74
2023/11/23 06:31:04;;;;;;;6.32;0.30;;;9.20;99.90;;;;;;5013488;28;20028;-74
2023/11/23 06:33:29;;;;;;;6.45;0.63;;;9.20;99.90;;;;;;5014104;28;20061;-74
2023/11/23 06:35:58;;;;;;;7.32;1.95;;;9.20;99.90;;;;;;5014474;28;20019;-74
2023/11/23 06:38:24;;;;;;;6.85;0.52;;;9.20;99.90;;;;;;5012847;28;20112;-75
2023/11/23 06:40:50;;;;;;;2.40;0.38;;;9.20;99.90;;;;;;5013454;28;20022;-74
2023/11/23 06:43:15;;;;;;;10.38;0.68;;;9.20;99.90;;;;;;5014071;28;20458;-74
2023/11/23 06:45:41;;;;;;;4.55;0.30;;;9.30;99.90;;;;;;5014640;28;20504;-74
2023/11/23 06:48:07;;;;;;;10.88;0.40;;;9.30;99.90;;;;;;5014889;28;20041;-74
2023/11/23 06:50:32;;;;;;;8.00;0.77;;;9.30;99.90;;;;;;5014991;28;20029;-74
2023/11/23 06:52:59;;;;;;;7.00;0.63;;;9.30;99.90;;;;;;5013021;28;20052;-74
2023/11/23 06:55:24;;;;;;;8.43;1.42;;;9.30;99.90;;;;;;5014449;28;20413;-74
2023/11/23 06:57:50;;;;;;;8.85;0.95;;;9.30;99.90;;;;;;5015409;28;20114;-74
2023/11/23 07:00:22;;;;;;;10.02;0.55;;;9.30;99.90;;;;;;5014675;28;20030;-74
2023/11/23 07:02:55;;;;;;;7.72;0.90;;;9.20;99.90;;;;;;5014339;28;20033;-74
2023/11/23 07:05:21;;;;;;;10.55;0.40;;;9.30;99.90;;;;;;5012606;28;20037;-74
2023/11/23 07:07:48;;;;;;;6.63;1.13;;;9.20;99.90;;;;;;5014789;28;20018;-74
2023/11/23 07:10:17;;;;;;;10.25;0.90;;;9.20;99.90;;;;;;5014648;28;20037;-74
2023/11/23 07:12:44;;;;;;;5.35;0.88;;;9.20;99.90;;;;;;5015153;28;20018;-74
2023/11/23 07:15:11;;;;;;;4.72;0.32;;;9.20;99.90;;;;;;5014449;28;20026;-76
2023/11/23 07:17:37;;;;;;;12.00;0.95;;;;;;;;;;5014925;28;20022;-76
2023/11/23 07:20:05;;;;;;;7.95;0.88;;;9.20;99.90;;;;;;5012834;28;20026;-76
2023/11/23 07:22:31;;;;;;;9.13;1.20;;;9.10;99.90;;;;;;5014078;28;20105;-75
2023/11/23 07:24:57;;;;;;;7.30;0.93;;;9.10;99.90;;;;;;5015134;28;20025;-76
2023/11/23 07:27:22;;;;;;;11.95;1.15;;;9.20;99.90;;;;;;5014303;28;20389;-76
2023/11/23 07:29:49;;;;;;;10.23;1.33;;;9.20;99.90;;;;;;5013460;28;20482;-76
2023/11/23 07:32:15;;;;;;;9.52;1.00;;;9.20;99.90;;;;;;5014416;28;20489;-75
2023/11/23 07:34:41;;;;;;;11.20;1.50;;;9.20;99.90;;;;;;5013331;28;20053;-76
2023/11/23 07:37:08;;;;;;;7.63;0.57;;;9.10;99.90;;;;;;5015165;28;20037;-76
2023/11/23 07:39:33;;;;;;;8.00;1.30;;;9.10;99.90;;;;;;5015537;28;20033;-76
2023/11/23 07:41:59;;;;;;;3.05;0.20;;;9.20;99.90;;;;;;5016381;28;20473;-76
2023/11/23 07:44:25;;;;;;;10.27;1.10;;;9.20;99.90;;;;;;5018094;28;20037;-75
2023/11/23 07:46:51;;;;;;;11.25;0.98;;;9.20;99.90;;;;;;5018681;28;20460;-76
2023/11/23 07:49:16;;;;;;;9.32;0.68;;;9.50;99.90;;;;;;5018447;28;20026;-75
2023/11/23 07:51:42;;;;;;;10.45;1.75;;;9.20;99.90;;;;;;5017230;28;20024;-75
2023/11/23 07:54:09;;;;;;;7.00;0.45;;;9.20;99.90;;;;;;5017361;28;20032;-75
2023/11/23 07:56:34;;;;;;;6.60;0.50;;;9.20;99.90;;;;;;5017066;28;20026;-75
2023/11/23 07:59:00;;;;;;;6.30;0.70;;;9.30;99.90;;;;;;5015849;28;20026;-75
2023/11/23 08:01:26;;;;;;;11.27;0.55;;;9.40;99.90;;;;;;5017877;28;20026;-75
2023/11/23 08:03:51;;;;;;;9.35;0.80;;;9.50;99.90;;;;;;5017946;28;20033;-75
2023/11/23 08:06:17;;;;;;;6.00;0.35;;;9.50;99.90;;;;;;5018471;28;20025;-76
2023/11/23 08:08:43;;;;;;;3.88;0.50;;;9.60;99.90;;;;;;5018200;28;20362;-76
2023/11/23 08:11:09;;;;;;;11.60;1.67;;;9.70;99.90;;;;;;5017956;28;20152;-76
2023/11/23 08:13:35;;;;;;;5.93;0.98;;;9.80;99.90;;;;;;5016265;28;20022;-75
2023/11/23 08:16:04;;;;;;;5.38;0.60;;;9.90;99.90;;;;;;5016270;28;20014;-76
2023/11/23 08:18:29;;;;;;;5.75;0.90;;;10.00;99.90;;;;;;5017449;28;20498;-75
2023/11/23 08:20:55;;;;;;;9.70;0.43;;;10.00;99.90;;;;;;5017505;28;20029;-75
2023/11/23 08:23:21;;;;;;;5.43;0.73;;;10.10;99.90;;;;;;5017405;28;20033;-75
2023/11/23 08:25:47;;;;;;;8.60;0.45;;;10.30;99.90;;;;;;5017634;28;20034;-75
2023/11/23 08:28:14;;;;;;;9.75;0.50;;;10.20;99.90;;;;;;5017479;28;20036;-75
2023/11/23 08:30:39;;;;;;;9.00;0.57;;;10.30;99.90;;;;;;5017461;28;20520;-76
2023/11/23 08:33:05;;;;;;;9.75;0.70;;;10.40;99.90;;;;;;5016435;28;20045;-76
2023/11/23 08:35:31;;;;;;;5.45;0.43;;;10.30;99.90;;;;;;5015956;28;20018;-75
2023/11/23 08:37:57;;;;;;;9.90;1.52;;;10.30;99.90;;;;;;5017220;28;20037;-75
2023/11/23 08:40:23;;;;;;;9.48;0.25;;;10.40;99.90;;;;;;5015962;28;20033;-75
2023/11/23 08:42:49;;;;;;;5.85;0.17;;;10.40;99.90;;;;;;5016294;28;20490;-76
2023/11/23 08:45:14;;;;;;;7.05;1.08;;;10.40;99.90;;;;;;5016992;28;20513;-76
2023/11/23 08:47:40;;;;;;;5.57;0.43;;;10.50;99.90;;;;;;5016815;28;20026;-76
2023/11/23 08:50:07;;;;;;;4.68;0.13;;;10.50;99.90;;;;;;5016457;28;20030;-76
2023/11/23 08:52:33;;;;;;;6.95;0.77;;;10.50;99.90;;;;;;5016503;28;20010;-76
2023/11/23 08:54:59;;;;;;;4.80;0.68;;;10.60;99.90;;;;;;5015044;28;20088;-76
2023/11/23 08:57:25;;;;;;;6.53;0.52;;;10.60;99.90;;;;;;5015437;28;20018;-76
2023/11/23 08:59:51;;;;;;;11.65;1.30;;;10.70;99.90;;;;;;5016124;28;20018;-76
2023/11/23 09:02:17;;;;;;;6.85;0.22;;;10.60;99.90;;;;;;5016002;28;20014;-76
2023/11/23 09:04:42;;;;;;;8.77;0.52;;;10.70;99.90;;;;;;5015228;28;20556;-76
2023/11/23 09:07:08;;;;;;;4.65;0.52;;;10.70;99.90;;;;;;5015512;28;20108;-76
2023/11/23 09:09:35;;;;;;;5.90;0.40;;;10.80;99.90;;;;;;5015762;28;20065;-76
2023/11/23 09:12:01;;;;;;;7.43;0.60;;;11.00;99.90;;;;;;5015939;28;20044;-76
2023/11/23 09:14:27;;;;;;;6.65;0.15;;;11.00;99.90;;;;;;5015367;28;20026;-76
2023/11/23 09:16:53;;;;;;;7.13;0.82;;;11.10;99.90;;;;;;5015704;28;20052;-76
2023/11/23 09:19:18;;;;;;;5.95;0.10;;;11.20;99.90;;;;;;5015273;28;20014;-76
2023/11/23 09:21:46;;;;;;;7.28;0.55;;;11.20;99.90;;;;;;5014038;28;20022;-76
2023/11/23 09:24:14;;;;;;;4.05;0.17;;;11.20;99.90;;;;;;5014017;28;20512;-76
2023/11/23 09:26:40;;;;;;;8.03;0.67;;;11.30;99.90;;;;;;5013767;28;20022;-76
2023/11/23 09:29:07;;;;;;;2.30;0.10;;;11.30;99.90;;;;;;5014926;28;20072;-77
2023/11/23 09:31:33;;;;;;;2.13;0.20;;;11.30;99.90;;;;;;5013653;28;20421;-77
2023/11/23 09:33:59;;;;;;;5.03;0.32;;;11.30;99.90;;;;;;5014844;28;20061;-76
2023/11/23 09:36:28;;;;;;;5.30;0.15;;;11.40;99.90;;;;;;5015693;28;20022;-75
2023/11/23 09:39:00;;;;;;;3.90;0.20;;;11.60;99.90;;;;;;5015220;28;20033;-76
2023/11/23 09:41:28;;;;;;;11.18;0.80;;;12.30;99.90;;;;;;5014629;28;20028;-77
2023/11/23 09:43:54;;;;;;;9.15;0.20;;;11.90;99.90;;;;;;5014429;28;20033;-77
2023/11/23 09:46:25;;;;;;;7.38;0.77;;;12.10;99.90;;;;;;5015000;28;20389;-76
2023/11/23 09:48:53;;;;;;;4.50;0.32;;;12.10;99.90;;;;;;5014250;28;20170;-77
2023/11/23 09:51:19;;;;;;;4.10;0.57;;;12.20;99.90;;;;;;5013600;28;20389;-77
2023/11/23 09:53:46;;;;;;;5.00;0.38;;;12.20;99.90;;;;;;5013824;28;20112;-77
2023/11/23 09:56:14;;;;;;;3.83;0.10;;;12.40;99.90;;;;;;5013643;28;20386;-77
2023/11/23 09:58:40;;;;;;;3.43;0.20;;;12.30;99.90;;;;;;5014270;28;20129;-77
2023/11/23 10:01:06;;;;;;;7.57;0.10;;;12.40;99.90;;;;;;5015118;28;20025;-76
2023/11/23 10:03:34;;;;;;;4.65;0.20;;;12.40;99.90;;;;;;5015724;28;20029;-75
2023/11/23 10:06:03;;;;;;;4.03;0.10;;;12.50;99.90;;;;;;5015037;28;20041;-75
2023/11/23 10:08:28;;;;;;;4.93;0.32;;;12.60;99.90;;;;;;5013023;28;20033;-77
2023/11/23 10:10:56;;;;;;;5.07;0.15;;;12.50;99.90;;;;;;5014550;28;20389;-76
2023/11/23 10:13:21;;;;;;;6.63;0.55;;;12.60;99.90;;;;;;5013912;28;20026;-76
2023/11/23 10:15:47;;;;;;;4.40;0.50;;;12.70;99.90;;;;;;5014406;28;20022;-76
2023/11/23 10:18:13;;;;;;;2.47;0.00;;;12.70;99.90;;;;;;5014463;28;20022;-77
2023/11/23 10:20:44;;;;;;;3.47;0.30;;;12.70;99.90;;;;;;5013947;28;20022;-76
2023/11/23 10:23:12;;;;;;;1.75;0.00;;;13.30;99.90;;;;;;5013851;28;20076;-76
2023/11/23 10:25:40;;;;;;;8.73;0.53;;;12.60;99.90;;;;;;5012691;28;20064;-76
2023/11/23 10:28:07;;;;;;;5.35;0.28;;;12.60;99.90;;;;;;5014070;28;20096;-76
2023/11/23 10:30:36;;;;;;;14.85;1.70;;;12.50;99.90;;;;;;5014053;28;20026;-76
2023/11/23 10:33:04;;;;;;;4.10;0.00;;;12.50;99.90;;;;;;5013132;28;20029;-77
2023/11/23 10:35:38;;;;;;;6.57;0.03;;;12.50;99.90;;;;;;5014718;28;20018;-77
2023/11/23 10:38:05;;;;;;;4.82;0.40;;;12.70;99.90;;;;;;5014953;28;20520;-77
2023/11/23 10:40:32;;;;;;;9.48;1.35;;;12.50;99.90;;;;;;5014454;28;20026;-76
2023/11/23 10:43:01;;;;;;;2.80;0.00;;;12.50;99.90;;;;;;5013038;28;20371;-76
2023/11/23 10:45:27;;;;;;;3.42;0.13;;;12.60;99.90;;;;;;5014204;28;20022;-76
2023/11/23 10:47:54;;;;;;;7.53;1.02;;;12.70;99.90;;;;;;5012404;28;20022;-75
2023/11/23 10:50:20;;;;;;;3.90;0.60;;;12.80;99.90;;;;;;5013683;28;20025;-76
2023/11/23 10:52:46;;;;;;;6.28;0.63;;;13.70;99.90;;;;;;5013785;28;20029;-75
2023/11/23 10:55:13;;;;;;;14.45;0.80;;;12.90;99.90;;;;;;5013984;28;20460;-75
2023/11/23 10:57:44;;;;;;;1.42;0.00;;;12.90;99.90;;;;;;5013840;28;20389;-75
2023/11/23 11:00:15;;;;;;;4.68;0.20;;;13.00;99.90;;;;;;5013706;28;20486;-75
2023/11/23 11:02:44;;;;;;;9.75;0.10;;;13.00;99.90;;;;;;5012850;28;20033;-74
2023/11/23 11:05:28;;;;;;;5.05;0.00;;;13.00;99.90;;;;;;5014142;28;20116;-75
2023/11/23 11:08:17;;;;;;;4.05;0.00;;;13.00;99.90;;;;;;5013539;28;20064;-75
2023/11/23 11:10:51;;;;;;;5.03;0.10;;;13.00;99.90;;;;;;5002775;28;20571;-76
2023/11/23 11:13:20;;;;;;;3.00;0.77;;;13.00;99.90;;;;;;5014192;28;20041;-76
2023/11/23 11:15:52;;;;;;;5.88;0.57;;;13.40;99.90;;;;;;5017314;28;20433;-76
2023/11/23 11:18:26;;;;;;;8.43;0.55;;;13.10;99.90;;;;;;5017379;28;20033;-76
2023/11/23 11:21:07;;;;;;;5.43;0.32;;;13.10;99.90;;;;;;5015472;28;20109;-76
2023/11/23 11:23:43;;;;;;;2.78;0.10;;;13.10;99.90;;;;;;5015670;28;20481;-76
2023/11/23 11:26:16;;;;;;;11.32;0.93;;;13.20;99.90;;;;;;5016749;28;20026;-76
2023/11/23 11:28:43;;;;;;;4.80;0.00;;;13.10;99.90;;;;;;5016274;28;20436;-75
2023/11/23 11:31:14;;;;;;;4.38;0.20;;;13.10;99.90;;;;;;5016784;28;20076;-76
2023/11/23 11:33:40;;;;;;;9.00;0.47;;;13.10;99.90;;;;;;5016925;28;20117;-76
2023/11/23 11:36:10;;;;;;;10.30;1.30;;;13.10;99.90;;;;;;5016711;28;20041;-76
2023/11/23 11:38:37;;;;;;;2.88;0.00;;;13.10;99.90;;;;;;5017073;28;20026;-76
2023/11/23 11:41:07;;;;;;;3.60;0.30;;;13.20;99.90;;;;;;5017256;28;20500;-76
2023/11/23 11:43:35;;;;;;;2.05;0.00;;;13.10;99.90;;;;;;5016986;28;20056;-76
2023/11/23 11:46:03;;;;;;;3.47;0.00;;;13.90;99.90;;;;;;5015301;28;20030;-76
2023/11/23 11:48:29;;;;;;;8.60;1.02;;;13.10;99.90;;;;;;5017158;28;20071;-76
2023/11/23 11:50:56;;;;;;;6.00;0.10;;;13.20;99.90;;;;;;5015010;28;20432;-76
2023/11/23 11:53:22;;;;;;;6.18;0.65;;;13.30;99.90;;;;;;5016151;28;20026;-76
2023/11/23 11:55:49;;;;;;;3.90;0.88;;;13.50;99.90;;;;;;5016753;28;20045;-76
2023/11/23 11:58:15;;;;;;;5.20;0.68;;;13.60;99.90;;;;;;5016120;28;20021;-76
2023/11/23 12:00:44;;;;;;;4.47;0.10;;;13.70;99.90;;;;;;5017098;28;20132;-76
2023/11/23 12:03:09;;;;;;;;;;;13.60;99.90;;;;;;5017022;28;20049;-77
2023/11/23 12:05:39;;;;;;;4.57;0.10;;;13.60;99.90;;;;;;5016038;28;19963;-76
2023/11/23 12:08:05;;;;;;;7.00;0.05;;;13.50;99.90;;;;;;5016527;28;20029;-76
2023/11/23 12:10:41;;;;;;;4.93;0.73;;;13.50;99.90;;;;;;5016004;28;20026;-76
2023/11/23 12:13:14;;;;;;;4.20;0.10;;;13.50;99.90;;;;;;5014496;28;20068;-76
2023/11/23 12:15:40;;;;;;;1.15;0.10;;;13.50;99.90;;;;;;5014464;28;20129;-76
2023/11/23 12:18:06;;;;;;;4.03;0.10;;;13.50;99.90;;;;;;5015690;28;20040;-76
2023/11/23 12:20:36;;;;;;;5.28;0.20;;;13.50;99.90;;;;;;5015712;28;20018;-76
2023/11/23 12:23:04;;;;;;;3.40;0.38;;;13.60;99.90;;;;;;5015894;28;20029;-76
2023/11/23 12:25:32;;;;;;;3.50;0.20;;;13.70;99.90;;;;;;5014973;28;20436;-76
2023/11/23 12:27:57;;;;;;;8.38;0.82;;;13.60;99.90;;;;;;5014175;28;20029;-76
2023/11/23 12:30:23;;;;;;;4.45;1.08;;;13.60;99.90;;;;;;5014384;28;20026;-76
2023/11/23 12:32:49;;;;;;;5.45;0.10;;;13.60;99.90;;;;;;5014329;28;20038;-76
2023/11/23 12:35:14;;;;;;;4.18;0.00;;;13.60;99.90;;;;;;5015377;28;20125;-76
2023/11/23 12:37:40;;;;;;;4.72;0.30;;;13.60;99.90;;;;;;5014045;28;20061;-76
2023/11/23 12:40:10;;;;;;;5.47;0.20;;;13.60;99.90;;;;;;5015348;28;20026;-76
2023/11/23 12:42:39;;;;;;;6.45;0.17;;;13.60;99.90;;;;;;5015341;28;20499;-76
2023/11/23 12:45:08;;;;;;;5.05;0.75;;;13.60;99.90;;;;;;5013954;28;20436;-76
2023/11/23 12:47:37;;;;;;;8.68;1.00;;;13.60;99.90;;;;;;5013920;28;20026;-76